Taiheimaru — JM6135 — position and weather

sailwx.info

Track history (hours):
 
Tides and Currents Weather Stations Pressure Air Temp Water Temp Dewpoint Dewpoint Depression Visibility Wind Speed Wind Dir Waves Ship Positions

Taiheimaru

Last reported at 2015-Mar-30 07:30 UTC. Time now 2015-Mar-30 23:04 UTC.
Position N 34°37' E 134°59'.

Length 78 m.

Type: Cargo ship. MMSI: 431400082.

Date/timePositionNaut miles runAvg speedWind from/ knotsBaromVisibWave heightAir tempDewpointWater temp
2015-Mar-30 07:30N 34°37' E 134°59'1111.5
2015-Mar-30 06:33N 34°37' E 135°12'3 3.2
2015-Mar-30 05:29N 34°39' E 135°14'0 0.0
2015-Mar-30 04:33N 34°39' E 135°14'0 0.0
2015-Mar-30 03:32N 34°39' E 135°14'0 0.2
2015-Mar-30 02:29N 34°39' E 135°15'2 2.5
2015-Mar-30 01:30N 34°41' E 135°13'0 0.0
2015-Mar-30 00:30N 34°41' E 135°13'0 0.0
2015-Mar-29 23:24N 34°41' E 135°13'0 0.0
2015-Mar-29 22:30N 34°41' E 135°13'0 0.0
2015-Mar-29 21:33N 34°41' E 135°13'0 0.0
2015-Mar-29 20:31N 34°41' E 135°13'0 0.0
2015-Mar-29 19:25N 34°41' E 135°13'0 0.0
2015-Mar-29 18:25N 34°41' E 135°13'0 0.0
2015-Mar-29 17:13N 34°41' E 135°13'0 0.0
2015-Mar-29 16:31N 34°41' E 135°13'0 0.0
2015-Mar-29 15:33N 34°41' E 135°13'0 0.0
2015-Mar-29 14:33N 34°41' E 135°13'0 0.0
2015-Mar-29 13:29N 34°41' E 135°13'0 0.0
2015-Mar-29 12:31N 34°41' E 135°13'0 0.0
2015-Mar-29 11:27N 34°41' E 135°13'0 0.0
2015-Mar-29 10:30N 34°41' E 135°13'0 0.0
2015-Mar-29 09:32N 34°41' E 135°13'0 0.0
2015-Mar-29 08:29N 34°41' E 135°13'0 0.0
2015-Mar-29 07:29N 34°41' E 135°13'0 0.0
2015-Mar-29 06:29N 34°41' E 135°13'0 0.0
2015-Mar-29 05:29N 34°41' E 135°13'0 0.0
2015-Mar-29 04:29N 34°41' E 135°13'0 0.0
2015-Mar-29 03:23N 34°41' E 135°13'4 4.7
2015-Mar-29 02:33N 34°38' E 135°15'10 0.3
2015-Mar-27 12:09N 34°36' E 135°03'711.1
2015-Mar-27 11:33N 34°37' E 135°11'4 3.5
2015-Mar-27 10:28N 34°40' E 135°14'0 0.1
2015-Mar-27 09:31N 34°40' E 135°14'0 0.0
2015-Mar-27 08:20N 34°40' E 135°14'0 0.0
2015-Mar-27 07:33N 34°40' E 135°14'2 2.2
2015-Mar-27 06:29N 34°41' E 135°13'0 0.0
2015-Mar-27 05:29N 34°41' E 135°13'0 0.0
2015-Mar-27 04:30N 34°41' E 135°13'0 0.0
2015-Mar-27 03:25N 34°41' E 135°13'0 0.0
2015-Mar-27 02:31N 34°41' E 135°13'0 0.0
2015-Mar-27 01:31N 34°41' E 135°13'0 0.0
2015-Mar-27 00:22N 34°41' E 135°13'0 0.0
2015-Mar-26 23:28N 34°41' E 135°13'0 0.0
2015-Mar-26 22:28N 34°41' E 135°13'4 4.8
2015-Mar-26 21:33N 34°37' E 135°13'14 0.3
2015-Mar-25 02:23N 34°37' E 134°56'1011.9
2015-Mar-25 01:31N 34°36' E 135°09'6 6.1
2015-Mar-25 00:33N 34°40' E 135°14'0 0.0
2015-Mar-24 23:20N 34°40' E 135°14'1 1.5
2015-Mar-24 22:30N 34°38' E 135°15'0 0.0
2015-Mar-24 21:29N 34°38' E 135°15'0 0.0
2015-Mar-24 20:25N 34°38' E 135°15'0 0.2
2015-Mar-24 19:33N 34°38' E 135°15'16 0.4
2015-Mar-23 08:04N 34°37' E 134°56'4 8.2
2015-Mar-23 07:32N 34°37' E 135°02'9 9.0
2015-Mar-23 06:33N 34°37' E 135°12'3 2.8
2015-Mar-23 05:31N 34°39' E 135°15'0 0.0
2015-Mar-23 04:29N 34°39' E 135°15'0 0.0
2015-Mar-23 03:30N 34°39' E 135°15'0 0.0
2015-Mar-23 02:30N 34°39' E 135°15'0 0.0
2015-Mar-23 01:33N 34°39' E 135°15'1 1.0
2015-Mar-23 00:25N 34°38' E 135°15'0 0.0
2015-Mar-22 23:27N 34°38' E 135°15'0 0.0
2015-Mar-22 22:32N 34°38' E 135°15'0 0.0
2015-Mar-22 21:28N 34°38' E 135°15'2 1.7
2015-Mar-22 20:31N 34°37' E 135°14'  
2015-Mar-20 12:31N 34°36' E 135°03'1010.0
2015-Mar-20 11:32N 34°39' E 135°14'0 0.0
2015-Mar-20 10:28N 34°39' E 135°14'0 0.0
2015-Mar-20 09:25N 34°39' E 135°14'2 2.6
2015-Mar-20 08:31N 34°41' E 135°12'  
Track history (hours):
 
Tides and Currents Weather Stations Pressure Air Temp Water Temp Dewpoint Dewpoint Depression Visibility Wind Speed Wind Dir Waves Ship Positions

Taiheimaru

Last reported at 2015-Mar-30 07:30 UTC. Time now 2015-Mar-30 23:04 UTC.
Position N 34°37' E 134°59'.

Length 78 m.

Type: Cargo ship. MMSI: 431400082.

Date/timePositionNaut miles runAvg speedWind from/ knotsBaromVisibWave heightAir tempDewpointWater temp
2015-Mar-30 07:30N 34°37' E 134°59'1111.5
2015-Mar-30 06:33N 34°37' E 135°12'3 3.2
2015-Mar-30 05:29N 34°39' E 135°14'0 0.0
2015-Mar-30 04:33N 34°39' E 135°14'0 0.0
2015-Mar-30 03:32N 34°39' E 135°14'0 0.2
2015-Mar-30 02:29N 34°39' E 135°15'2 2.5
2015-Mar-30 01:30N 34°41' E 135°13'0 0.0
2015-Mar-30 00:30N 34°41' E 135°13'0 0.0
2015-Mar-29 23:24N 34°41' E 135°13'0 0.0
2015-Mar-29 22:30N 34°41' E 135°13'0 0.0
2015-Mar-29 21:33N 34°41' E 135°13'0 0.0
2015-Mar-29 20:31N 34°41' E 135°13'0 0.0
2015-Mar-29 19:25N 34°41' E 135°13'0 0.0
2015-Mar-29 18:25N 34°41' E 135°13'0 0.0
2015-Mar-29 17:13N 34°41' E 135°13'0 0.0
2015-Mar-29 16:31N 34°41' E 135°13'0 0.0
2015-Mar-29 15:33N 34°41' E 135°13'0 0.0
2015-Mar-29 14:33N 34°41' E 135°13'0 0.0
2015-Mar-29 13:29N 34°41' E 135°13'0 0.0
2015-Mar-29 12:31N 34°41' E 135°13'0 0.0
2015-Mar-29 11:27N 34°41' E 135°13'0 0.0
2015-Mar-29 10:30N 34°41' E 135°13'0 0.0
2015-Mar-29 09:32N 34°41' E 135°13'0 0.0
2015-Mar-29 08:29N 34°41' E 135°13'0 0.0
2015-Mar-29 07:29N 34°41' E 135°13'0 0.0
2015-Mar-29 06:29N 34°41' E 135°13'0 0.0
2015-Mar-29 05:29N 34°41' E 135°13'0 0.0
2015-Mar-29 04:29N 34°41' E 135°13'0 0.0
2015-Mar-29 03:23N 34°41' E 135°13'4 4.7
2015-Mar-29 02:33N 34°38' E 135°15'10 0.3
2015-Mar-27 12:09N 34°36' E 135°03'711.1
2015-Mar-27 11:33N 34°37' E 135°11'4 3.5
2015-Mar-27 10:28N 34°40' E 135°14'0 0.1
2015-Mar-27 09:31N 34°40' E 135°14'0 0.0
2015-Mar-27 08:20N 34°40' E 135°14'0 0.0
2015-Mar-27 07:33N 34°40' E 135°14'2 2.2
2015-Mar-27 06:29N 34°41' E 135°13'0 0.0
2015-Mar-27 05:29N 34°41' E 135°13'0 0.0
2015-Mar-27 04:30N 34°41' E 135°13'0 0.0
2015-Mar-27 03:25N 34°41' E 135°13'0 0.0
2015-Mar-27 02:31N 34°41' E 135°13'0 0.0
2015-Mar-27 01:31N 34°41' E 135°13'0 0.0
2015-Mar-27 00:22N 34°41' E 135°13'0 0.0
2015-Mar-26 23:28N 34°41' E 135°13'0 0.0
2015-Mar-26 22:28N 34°41' E 135°13'4 4.8
2015-Mar-26 21:33N 34°37' E 135°13'14 0.3
2015-Mar-25 02:23N 34°37' E 134°56'1011.9
2015-Mar-25 01:31N 34°36' E 135°09'6 6.1
2015-Mar-25 00:33N 34°40' E 135°14'0 0.0
2015-Mar-24 23:20N 34°40' E 135°14'1 1.5
2015-Mar-24 22:30N 34°38' E 135°15'0 0.0
2015-Mar-24 21:29N 34°38' E 135°15'0 0.0
2015-Mar-24 20:25N 34°38' E 135°15'0 0.2
2015-Mar-24 19:33N 34°38' E 135°15'16 0.4
2015-Mar-23 08:04N 34°37' E 134°56'4 8.2
2015-Mar-23 07:32N 34°37' E 135°02'9 9.0
2015-Mar-23 06:33N 34°37' E 135°12'3 2.8
2015-Mar-23 05:31N 34°39' E 135°15'0 0.0
2015-Mar-23 04:29N 34°39' E 135°15'0 0.0
2015-Mar-23 03:30N 34°39' E 135°15'0 0.0
2015-Mar-23 02:30N 34°39' E 135°15'0 0.0
2015-Mar-23 01:33N 34°39' E 135°15'1 1.0
2015-Mar-23 00:25N 34°38' E 135°15'0 0.0
2015-Mar-22 23:27N 34°38' E 135°15'0 0.0
2015-Mar-22 22:32N 34°38' E 135°15'0 0.0
2015-Mar-22 21:28N 34°38' E 135°15'2 1.7
2015-Mar-22 20:31N 34°37' E 135°14'  
2015-Mar-20 12:31N 34°36' E 135°03'1010.0
2015-Mar-20 11:32N 34°39' E 135°14'0 0.0
2015-Mar-20 10:28N 34°39' E 135°14'0 0.0
2015-Mar-20 09:25N 34°39' E 135°14'2 2.6
2015-Mar-20 08:31N 34°41' E 135°12'  

Dump ship's entire track history